createdAt,value
2022-08-19T00:00:22.009Z,2.20
2022-08-19T00:02:50.565Z,2.28
2022-08-19T00:05:21.284Z,2.63
2022-08-19T00:07:51.812Z,2.23
2022-08-19T00:10:21.765Z,1.90
2022-08-19T00:12:50.346Z,2.15
2022-08-19T00:15:21.501Z,2.13
2022-08-19T00:17:49.931Z,2.25
2022-08-19T00:20:23.265Z,2.17
2022-08-19T00:22:52.932Z,1.90
2022-08-19T00:25:29.849Z,1.90
2022-08-19T00:27:58.657Z,2.00
2022-08-19T00:30:28.050Z,1.88
2022-08-19T00:32:56.424Z,1.80
2022-08-19T00:35:28.066Z,2.00
2022-08-19T00:37:57.099Z,2.00
2022-08-19T00:40:26.040Z,1.40
2022-08-19T00:42:55.037Z,1.40
2022-08-19T00:45:25.649Z,1.30
2022-08-19T00:47:53.956Z,1.23
2022-08-19T00:50:25.348Z,1.10
2022-08-19T00:52:54.506Z,1.67
2022-08-19T00:55:26.514Z,1.45
2022-08-19T00:57:58.358Z,1.60
2022-08-19T01:00:28.644Z,1.85
2022-08-19T01:02:56.965Z,1.55
2022-08-19T01:05:29.714Z,1.33
2022-08-19T01:08:00.343Z,1.48
2022-08-19T01:10:36.067Z,1.50
2022-08-19T01:13:05.911Z,1.40
2022-08-19T01:15:36.342Z,1.65
2022-08-19T01:18:10.167Z,1.40
2022-08-19T01:20:41.077Z,1.70
2022-08-19T01:23:10.627Z,1.70
2022-08-19T01:25:44.439Z,1.60
2022-08-19T01:28:18.824Z,1.70
2022-08-19T01:31:01.763Z,1.50
2022-08-19T01:33:36.429Z,1.75
2022-08-19T01:36:13.723Z,2.20
2022-08-19T01:38:44.899Z,2.10
2022-08-19T01:41:13.685Z,2.10
2022-08-19T01:44:13.188Z,2.50
2022-08-19T01:46:30.449Z,2.15
2022-08-19T01:48:59.048Z,2.13
2022-08-19T01:51:27.370Z,2.20
2022-08-19T01:53:58.920Z,2.78
2022-08-19T01:56:27.717Z,3.10
2022-08-19T01:58:59.896Z,2.95
2022-08-19T02:01:28.117Z,3.30
2022-08-19T02:03:59.821Z,3.60
2022-08-19T02:06:28.213Z,3.67
2022-08-19T02:08:57.789Z,3.80
2022-08-19T02:11:28.431Z,3.95
2022-08-19T02:13:56.969Z,3.97
2022-08-19T02:16:25.515Z,4.60
2022-08-19T02:18:53.898Z,4.78
2022-08-19T02:21:24.450Z,4.68
2022-08-19T02:23:53.041Z,5.07
2022-08-19T02:26:22.436Z,5.43
2022-08-19T02:28:50.817Z,5.35
2022-08-19T02:31:25.610Z,5.65
2022-08-19T02:33:56.551Z,5.28
2022-08-19T02:36:26.111Z,5.10
2022-08-19T02:38:54.553Z,5.53
2022-08-19T02:41:28.788Z,6.13
2022-08-19T02:44:30.017Z,6.38
2022-08-19T02:46:48.595Z,5.63
2022-08-19T02:49:17.250Z,6.20
2022-08-19T02:51:47.189Z,5.87
2022-08-19T02:54:16.757Z,6.80
2022-08-19T02:56:47.408Z,6.70
2022-08-19T02:59:15.924Z,6.63
2022-08-19T03:01:44.583Z,7.70
2022-08-19T03:04:15.492Z,6.90
2022-08-19T03:06:46.159Z,7.38
2022-08-19T03:09:14.716Z,7.75
2022-08-19T03:11:42.927Z,7.43
2022-08-19T03:14:12.624Z,8.57
2022-08-19T03:16:45.483Z,9.20
2022-08-19T03:19:13.879Z,9.65
2022-08-19T03:21:42.013Z,9.27
2022-08-19T03:24:10.735Z,9.38
2022-08-19T03:26:42.140Z,10.02
2022-08-19T03:29:13.229Z,10.60
2022-08-19T03:31:52.512Z,10.75
2022-08-19T03:34:23.435Z,10.98
2022-08-19T03:36:51.834Z,11.60
2022-08-19T03:39:20.317Z,11.90
2022-08-19T03:41:50.054Z,12.23
2022-08-19T03:44:39.703Z,12.45
2022-08-19T03:47:08.302Z,12.55
2022-08-19T03:49:37.546Z,12.63
2022-08-19T03:52:08.602Z,13.05
2022-08-19T03:54:38.931Z,13.37
2022-08-19T03:57:08.615Z,13.55
2022-08-19T03:59:41.826Z,12.82
2022-08-19T04:02:12.470Z,13.02
2022-08-19T04:04:44.077Z,13.93
2022-08-19T04:07:14.572Z,13.47
2022-08-19T04:09:42.654Z,12.52
2022-08-19T04:12:10.831Z,13.02
2022-08-19T04:14:38.970Z,13.27
2022-08-19T04:17:08.372Z,14.13
2022-08-19T04:19:38.163Z,14.00
2022-08-19T04:22:07.831Z,12.98
2022-08-19T04:24:37.029Z,13.60
2022-08-19T04:27:07.134Z,13.35
2022-08-19T04:29:35.677Z,14.00
2022-08-19T04:32:09.279Z,13.63
2022-08-19T04:35:15.765Z,14.10
2022-08-19T04:37:35.174Z,13.75
2022-08-19T04:40:23.742Z,14.20
2022-08-19T04:42:52.351Z,13.77
2022-08-19T04:45:22.834Z,14.33
2022-08-19T04:47:58.181Z,13.40
2022-08-19T04:50:29.420Z,12.77
2022-08-19T04:52:57.708Z,13.05
2022-08-19T04:55:27.396Z,13.40
2022-08-19T04:57:55.591Z,14.10
2022-08-19T05:00:24.075Z,13.02
2022-08-19T05:02:52.169Z,14.75
2022-08-19T05:05:20.716Z,12.93
2022-08-19T05:07:50.319Z,13.38
2022-08-19T05:10:18.468Z,14.47
2022-08-19T05:12:46.511Z,14.85
2022-08-19T05:15:14.781Z,13.93
2022-08-19T05:18:03.345Z,13.90
2022-08-19T05:20:48.982Z,13.75
2022-08-19T05:23:20.448Z,13.30
2022-08-19T05:25:48.806Z,13.70
2022-08-19T05:28:16.871Z,14.77
2022-08-19T05:30:47.498Z,13.98
2022-08-19T05:33:15.804Z,12.35
2022-08-19T05:35:44.922Z,14.17
2022-08-19T05:38:13.659Z,13.93
2022-08-19T05:40:43.744Z,12.80
2022-08-19T05:43:11.754Z,14.20
2022-08-19T05:45:44.251Z,15.20
2022-08-19T05:48:13.349Z,13.63
2022-08-19T05:50:42.937Z,14.95
2022-08-19T05:53:11.273Z,14.40
2022-08-19T05:55:40.624Z,13.98
2022-08-19T05:58:10.054Z,14.18
2022-08-19T06:00:39.545Z,13.00
2022-08-19T06:03:09.638Z,14.38
2022-08-19T06:05:49.481Z,13.77
2022-08-19T06:08:20.616Z,15.80
2022-08-19T06:11:15.206Z,15.10
2022-08-19T06:13:44.903Z,14.60
2022-08-19T06:16:13.331Z,14.57
2022-08-19T06:18:41.748Z,15.35
2022-08-19T06:21:10.230Z,14.60
2022-08-19T06:23:38.257Z,14.63
2022-08-19T06:26:06.653Z,15.23
2022-08-19T06:28:34.957Z,16.23
2022-08-19T06:31:09.581Z,16.98
2022-08-19T06:33:38.335Z,16.52
2022-08-19T06:36:07.197Z,16.30
2022-08-19T06:38:35.382Z,17.10
2022-08-19T06:41:07.920Z,16.38
2022-08-19T06:43:42.257Z,16.92
2022-08-19T06:46:17.153Z,16.58
2022-08-19T06:48:45.866Z,16.88
2022-08-19T06:51:19.154Z,17.27
2022-08-19T06:53:48.171Z,17.90
2022-08-19T06:56:18.907Z,18.25
2022-08-19T06:58:47.659Z,17.85
2022-08-19T07:01:17.051Z,17.63
2022-08-19T07:03:45.400Z,17.53
2022-08-19T07:06:43.664Z,17.20
2022-08-19T07:09:08.162Z,17.08
2022-08-19T07:11:36.833Z,18.05
2022-08-19T07:14:07.467Z,18.23
2022-08-19T07:16:50.073Z,17.80
2022-08-19T07:19:19.270Z,18.90
2022-08-19T07:21:53.586Z,19.83
2022-08-19T07:24:24.745Z,20.40
2022-08-19T07:26:55.268Z,19.27
2022-08-19T07:29:25.781Z,19.10
2022-08-19T07:32:00.176Z,20.80
2022-08-19T07:34:30.869Z,20.23
2022-08-19T07:37:00.550Z,19.10
2022-08-19T07:39:30.941Z,19.35
2022-08-19T07:42:00.535Z,20.03
2022-08-19T07:44:29.098Z,20.45
2022-08-19T07:47:01.056Z,19.88
2022-08-19T07:49:51.003Z,20.73
2022-08-19T07:52:22.365Z,20.95
2022-08-19T07:54:50.631Z,19.30
2022-08-19T07:57:20.152Z,19.65
2022-08-19T07:59:48.443Z,20.13
2022-08-19T08:02:18.504Z,22.83
2022-08-19T08:05:07.207Z,21.70
2022-08-19T08:07:53.167Z,23.17
2022-08-19T08:10:21.867Z,20.85
2022-08-19T08:13:09.918Z,21.30
2022-08-19T08:15:42.974Z,21.75
2022-08-19T08:22:45.668Z,19.70
2022-08-19T08:25:18.461Z,21.20
2022-08-19T08:27:53.686Z,20.90
2022-08-19T08:30:26.974Z,19.90
2022-08-19T08:33:02.672Z,19.40
2022-08-19T08:35:38.040Z,20.20
2022-08-19T08:38:06.573Z,19.95
2022-08-19T08:40:45.133Z,21.33
2022-08-19T08:43:24.617Z,19.70
2022-08-19T08:45:58.356Z,21.05
2022-08-19T08:48:34.825Z,19.80
2022-08-19T08:51:07.177Z,21.90
2022-08-19T08:53:41.925Z,21.10
2022-08-19T08:56:13.439Z,20.65
2022-08-19T08:58:54.768Z,21.70
2022-08-19T09:01:23.532Z,20.30
2022-08-19T09:03:52.003Z,21.65
2022-08-19T09:06:32.502Z,22.35
2022-08-19T09:09:12.278Z,20.15
2022-08-19T09:11:58.926Z,21.30
2022-08-19T09:14:51.132Z,22.63
2022-08-19T09:17:22.017Z,20.70
2022-08-19T09:19:55.970Z,21.83
2022-08-19T09:22:27.772Z,20.45
2022-08-19T09:24:56.928Z,22.58
2022-08-19T09:27:41.802Z,22.10
2022-08-19T09:30:14.596Z,21.70
2022-08-19T09:32:44.445Z,22.13
2022-08-19T09:35:13.537Z,22.23
2022-08-19T09:37:43.672Z,21.65
2022-08-19T09:40:13.520Z,21.53
2022-08-19T09:42:50.050Z,23.70
2022-08-19T09:45:23.387Z,22.90
2022-08-19T09:47:54.130Z,21.55
2022-08-19T09:50:24.201Z,21.92
2022-08-19T09:52:58.103Z,23.07
2022-08-19T09:55:32.079Z,21.63
2022-08-19T09:58:02.952Z,22.35
2022-08-19T10:00:31.954Z,22.58
2022-08-19T10:03:01.018Z,21.58
2022-08-19T10:05:48.684Z,21.27
2022-08-19T10:08:20.663Z,21.95
2022-08-19T10:10:49.782Z,21.05
2022-08-19T10:13:21.438Z,19.45
2022-08-19T10:15:51.595Z,20.45
2022-08-19T10:18:21.821Z,20.30
2022-08-19T10:20:52.807Z,20.00
2022-08-19T10:23:23.102Z,20.35
2022-08-19T10:26:02.115Z,20.08
2022-08-19T10:28:30.470Z,19.10
2022-08-19T10:30:58.871Z,19.70
2022-08-19T10:33:53.027Z,19.90
2022-08-19T10:36:19.829Z,19.23
2022-08-19T10:38:56.194Z,19.25
2022-08-19T10:41:26.973Z,17.85
2022-08-19T10:43:56.057Z,18.10
2022-08-19T10:46:25.681Z,18.10
2022-08-19T10:48:54.671Z,18.08
2022-08-19T10:51:47.921Z,18.27
2022-08-19T10:54:33.372Z,40.65
2022-08-19T10:57:02.200Z,21.17
2022-08-19T10:59:35.779Z,15.50
2022-08-19T11:02:06.352Z,14.85
2022-08-19T11:04:35.735Z,14.05
2022-08-19T11:07:04.756Z,14.30
2022-08-19T11:09:40.627Z,14.27
2022-08-19T11:12:13.148Z,15.48
2022-08-19T11:14:41.565Z,14.60
2022-08-19T11:17:10.324Z,13.85
2022-08-19T11:19:38.656Z,13.05
2022-08-19T11:22:07.043Z,11.20
2022-08-19T11:24:38.779Z,10.77
2022-08-19T11:27:10.033Z,11.18
2022-08-19T11:29:44.266Z,11.10
2022-08-19T11:32:14.757Z,10.35
2022-08-19T11:34:43.223Z,11.17
2022-08-19T11:37:11.674Z,10.32
2022-08-19T11:39:41.088Z,10.63
2022-08-19T11:42:23.527Z,9.30
2022-08-19T11:44:51.924Z,9.23
2022-08-19T11:47:20.370Z,7.17
2022-08-19T11:49:48.992Z,5.78
2022-08-19T11:52:17.429Z,5.93
2022-08-19T11:54:46.809Z,4.65
2022-08-19T11:57:17.800Z,4.47
2022-08-19T11:59:51.095Z,4.10
2022-08-19T12:02:20.078Z,4.28
2022-08-19T12:04:48.894Z,4.22
2022-08-19T12:07:17.552Z,5.60
2022-08-19T12:09:48.642Z,6.50
2022-08-19T12:12:20.246Z,6.83
2022-08-19T12:14:48.741Z,7.97
2022-08-19T12:17:16.762Z,9.68
2022-08-19T12:19:45.391Z,8.50
2022-08-19T12:22:13.774Z,9.23
2022-08-19T12:24:42.164Z,8.60
2022-08-19T12:27:12.738Z,9.07
2022-08-19T12:29:42.404Z,8.95
2022-08-19T12:32:12.176Z,8.93
2022-08-19T12:34:40.979Z,7.65
2022-08-19T12:37:09.479Z,7.93
2022-08-19T12:39:41.104Z,7.25
2022-08-19T12:42:09.777Z,6.85
2022-08-19T12:44:41.760Z,5.97
2022-08-19T12:47:12.240Z,5.93
2022-08-19T12:49:52.270Z,20.27
2022-08-19T12:52:23.790Z,6.82
2022-08-19T12:54:56.888Z,4.80
2022-08-19T12:57:45.248Z,4.60
2022-08-19T13:00:22.935Z,4.70
2022-08-19T13:02:53.368Z,4.97
2022-08-19T13:05:24.619Z,4.13
2022-08-19T13:07:56.848Z,4.18
2022-08-19T13:10:27.411Z,4.28
2022-08-19T13:12:56.513Z,4.13
2022-08-19T13:15:26.128Z,4.10
2022-08-19T13:17:56.744Z,3.90
2022-08-19T13:20:25.780Z,3.70
2022-08-19T13:22:54.371Z,3.97
2022-08-19T13:25:23.424Z,3.90
2022-08-19T13:27:52.904Z,3.97
2022-08-19T13:30:39.544Z,3.92
2022-08-19T13:33:12.753Z,3.88
2022-08-19T13:35:47.760Z,3.78
2022-08-19T13:38:17.375Z,4.18
2022-08-19T13:40:45.848Z,4.17
2022-08-19T13:43:23.439Z,4.38
2022-08-19T13:45:56.285Z,4.72
2022-08-19T13:48:29.832Z,4.95
2022-08-19T13:50:58.167Z,5.50
2022-08-19T13:53:26.846Z,5.10
2022-08-19T13:55:55.314Z,5.00
2022-08-19T13:58:24.299Z,6.13
2022-08-19T14:00:52.766Z,5.95
2022-08-19T14:03:21.218Z,6.53
2022-08-19T14:05:53.310Z,6.50
2022-08-19T14:08:22.314Z,7.57
2022-08-19T14:10:50.884Z,7.03
2022-08-19T14:13:22.765Z,7.00
2022-08-19T14:15:51.330Z,7.82
2022-08-19T14:18:23.650Z,7.43
2022-08-19T14:20:57.685Z,7.50
2022-08-19T14:23:27.277Z,8.43
2022-08-19T14:26:00.758Z,8.52
2022-08-19T14:28:31.880Z,8.75
2022-08-19T14:31:00.979Z,7.97
2022-08-19T14:33:30.575Z,8.98
2022-08-19T14:36:01.231Z,8.02
2022-08-19T14:38:32.439Z,10.70
2022-08-19T14:41:13.980Z,9.82
2022-08-19T14:43:42.532Z,14.17
2022-08-19T14:46:11.298Z,9.00
2022-08-19T14:48:41.570Z,11.75
2022-08-19T14:51:11.584Z,10.20
2022-08-19T14:53:39.868Z,11.20
2022-08-19T14:56:12.320Z,11.97
2022-08-19T14:58:41.155Z,9.45
2022-08-19T15:01:10.313Z,9.40
2022-08-19T15:03:48.881Z,8.50
2022-08-19T15:06:18.440Z,8.95
2022-08-19T15:08:47.026Z,7.67
2022-08-19T15:11:21.877Z,7.10
2022-08-19T15:13:53.999Z,7.57
2022-08-19T15:16:27.230Z,8.05
2022-08-19T15:19:12.830Z,7.95
2022-08-19T15:21:42.237Z,8.20
2022-08-19T15:24:13.263Z,9.68
2022-08-19T15:26:43.698Z,9.35
2022-08-19T15:29:13.899Z,7.57
2022-08-19T15:31:45.548Z,8.00
2022-08-19T15:34:14.004Z,9.23
2022-08-19T15:36:45.683Z,7.70
2022-08-19T15:39:47.236Z,7.63
2022-08-19T15:42:38.794Z,11.95
2022-08-19T15:45:07.690Z,8.60
2022-08-19T15:47:36.148Z,7.20
2022-08-19T15:50:10.757Z,7.55
2022-08-19T15:52:49.906Z,5.78
2022-08-19T15:55:32.341Z,4.82
2022-08-19T15:58:46.371Z,6.20
2022-08-19T16:01:43.690Z,5.40
2022-08-19T16:04:29.605Z,5.03
2022-08-19T16:07:00.248Z,5.40
2022-08-19T16:09:44.474Z,5.88
2022-08-19T16:12:12.863Z,5.93
2022-08-19T16:14:41.223Z,4.57
2022-08-19T16:17:11.783Z,5.13
2022-08-19T16:19:42.612Z,5.93
2022-08-19T16:22:11.097Z,5.13
2022-08-19T16:24:39.476Z,5.20
2022-08-19T16:27:08.869Z,5.40
2022-08-19T16:29:38.966Z,5.22
2022-08-19T16:32:10.816Z,5.40
2022-08-19T16:34:40.116Z,5.00
2022-08-19T16:37:08.635Z,5.70
2022-08-19T16:39:37.024Z,5.13
2022-08-19T16:42:07.623Z,5.40
2022-08-19T16:44:39.366Z,5.57
2022-08-19T16:47:07.920Z,5.35
2022-08-19T16:49:54.402Z,5.93
2022-08-19T16:52:27.268Z,5.90
2022-08-19T16:54:55.778Z,5.50
2022-08-19T16:57:24.796Z,6.35
2022-08-19T16:59:54.437Z,6.85
2022-08-19T17:02:23.673Z,6.70
2022-08-19T17:04:59.264Z,6.33
2022-08-19T17:07:28.780Z,6.35
2022-08-19T17:09:58.025Z,7.18
2022-08-19T17:12:30.261Z,7.30
2022-08-19T17:15:03.780Z,6.95
2022-08-19T17:17:32.873Z,6.90
2022-08-19T17:20:02.384Z,6.93
2022-08-19T17:22:31.164Z,7.00
2022-08-19T17:25:01.899Z,7.53
2022-08-19T17:30:25.752Z,5.97
2022-08-19T17:36:16.361Z,6.28
2022-08-19T17:38:47.362Z,6.35
2022-08-19T17:41:17.078Z,7.82
2022-08-19T17:43:52.433Z,6.83
2022-08-19T17:46:32.595Z,7.38
2022-08-19T17:49:01.125Z,7.32
2022-08-19T17:51:42.500Z,6.68
2022-08-19T17:54:12.883Z,6.90
2022-08-19T17:56:41.762Z,7.03
2022-08-19T17:59:13.779Z,7.35
2022-08-19T18:01:53.576Z,7.47
2022-08-19T18:04:24.114Z,6.82
2022-08-19T18:06:54.341Z,8.38
2022-08-19T18:09:25.965Z,7.30
2022-08-19T18:11:57.120Z,7.75
2022-08-19T18:14:33.648Z,7.50
2022-08-19T18:17:09.642Z,7.88
2022-08-19T18:19:41.400Z,7.30
2022-08-19T18:22:12.658Z,8.93
2022-08-19T18:24:45.850Z,8.15
2022-08-19T18:27:19.417Z,7.28
2022-08-19T18:29:48.006Z,7.30
2022-08-19T18:32:23.861Z,6.70
2022-08-19T18:34:53.306Z,6.40
2022-08-19T18:37:22.584Z,6.32
2022-08-19T18:40:08.583Z,7.20
2022-08-19T18:42:54.361Z,6.68
2022-08-19T18:45:43.568Z,6.80
2022-08-19T18:48:42.274Z,6.20
2022-08-19T18:51:12.032Z,6.15
2022-08-19T18:53:44.662Z,6.03
2022-08-19T18:56:15.755Z,16.00
2022-08-19T18:58:45.267Z,13.88
2022-08-19T19:01:16.282Z,13.13
2022-08-19T19:03:52.881Z,7.47
2022-08-19T19:06:29.858Z,13.82
2022-08-19T19:09:01.678Z,13.57
2022-08-19T19:11:32.563Z,12.57
2022-08-19T19:14:03.065Z,10.27
2022-08-19T19:16:31.791Z,8.63
2022-08-19T19:19:01.148Z,15.57
2022-08-19T19:21:34.392Z,10.90
2022-08-19T19:24:03.008Z,18.00
2022-08-19T19:26:31.157Z,8.83
2022-08-19T19:28:59.826Z,7.45
2022-08-19T19:31:28.833Z,13.65
2022-08-19T19:34:00.387Z,9.27
2022-08-19T19:36:29.824Z,8.38
2022-08-19T19:38:58.154Z,7.67
2022-08-19T19:41:26.526Z,7.88
2022-08-19T19:44:23.205Z,7.38
2022-08-19T19:46:45.226Z,8.38
2022-08-19T19:49:14.212Z,9.75
2022-08-19T19:51:44.339Z,25.80
2022-08-19T19:54:14.572Z,8.57
2022-08-19T19:56:45.426Z,16.10
2022-08-19T19:59:13.784Z,14.45
2022-08-19T20:01:46.116Z,10.23
2022-08-19T20:04:17.687Z,8.10
2022-08-19T20:06:47.852Z,7.45
2022-08-19T20:09:19.731Z,7.25
2022-08-19T20:11:54.305Z,7.40
2022-08-19T20:14:26.430Z,7.03
2022-08-19T20:16:57.326Z,7.20
2022-08-19T20:19:35.801Z,7.20
2022-08-19T20:22:07.091Z,6.60
2022-08-19T20:24:36.476Z,7.43
2022-08-19T20:27:06.809Z,7.30
2022-08-19T20:29:38.894Z,7.17
2022-08-19T20:32:09.844Z,7.00
2022-08-19T20:34:38.175Z,7.00
2022-08-19T20:37:09.573Z,7.15
2022-08-19T20:39:38.249Z,8.52
2022-08-19T20:42:07.016Z,8.00
2022-08-19T20:44:35.584Z,8.40
2022-08-19T20:47:04.332Z,9.15
2022-08-19T20:49:33.158Z,8.00
2022-08-19T20:52:01.642Z,8.48
2022-08-19T20:54:31.505Z,8.90
2022-08-19T20:56:59.895Z,9.00
2022-08-19T20:59:28.325Z,9.50
2022-08-19T21:01:57.491Z,8.60
2022-08-19T21:04:26.778Z,8.35
2022-08-19T21:06:56.519Z,9.30
2022-08-19T21:09:24.841Z,9.35
2022-08-19T21:11:54.484Z,9.70
2022-08-19T21:14:23.173Z,10.77
2022-08-19T21:16:51.512Z,10.10
2022-08-19T21:19:23.785Z,8.97
2022-08-19T21:21:52.574Z,9.93
2022-08-19T21:24:20.961Z,9.88
2022-08-19T21:26:51.401Z,9.13
2022-08-19T21:29:21.546Z,9.95
2022-08-19T21:32:44.357Z,9.87
2022-08-19T21:35:11.232Z,9.95
2022-08-19T21:37:46.991Z,10.80
2022-08-19T21:40:16.641Z,10.82
2022-08-19T21:42:45.117Z,10.73
2022-08-19T21:45:17.394Z,11.07
2022-08-19T21:47:46.059Z,10.77
2022-08-19T21:50:14.404Z,10.45
2022-08-19T21:52:42.761Z,10.43
2022-08-19T21:55:12.224Z,10.00
2022-08-19T21:57:41.514Z,10.03
2022-08-19T22:00:17.503Z,10.43
2022-08-19T22:02:46.960Z,10.05
2022-08-19T22:05:15.493Z,10.25
2022-08-19T22:07:43.870Z,10.23
2022-08-19T22:10:12.605Z,10.43
2022-08-19T22:12:47.273Z,10.50
2022-08-19T22:15:22.355Z,10.98
2022-08-19T22:17:50.978Z,10.23
2022-08-19T22:20:22.669Z,11.55
2022-08-19T22:22:52.721Z,11.87
2022-08-19T22:25:29.330Z,11.20
2022-08-19T22:28:02.026Z,11.70
2022-08-19T22:30:38.966Z,11.45
2022-08-19T22:33:16.890Z,11.98
2022-08-19T22:35:46.982Z,12.20
2022-08-19T22:38:15.767Z,12.32
2022-08-19T22:40:47.415Z,12.70
2022-08-19T22:43:17.761Z,12.60
2022-08-19T22:45:48.713Z,13.20
2022-08-19T22:48:19.211Z,12.83
2022-08-19T22:51:08.720Z,14.02
2022-08-19T22:53:38.336Z,13.57
2022-08-19T22:56:10.851Z,13.25
2022-08-19T22:58:43.417Z,13.77
2022-08-19T23:01:27.168Z,14.50
2022-08-19T23:03:58.538Z,14.48
2022-08-19T23:06:31.268Z,14.48
2022-08-19T23:09:02.463Z,15.10
2022-08-19T23:11:35.718Z,15.32
2022-08-19T23:14:08.739Z,14.93
2022-08-19T23:16:38.257Z,15.23
2022-08-19T23:19:08.217Z,14.98
2022-08-19T23:21:37.256Z,14.85
2022-08-19T23:24:06.063Z,15.80
2022-08-19T23:26:36.028Z,15.30
2022-08-19T23:29:23.389Z,15.60
2022-08-19T23:31:52.857Z,14.98
2022-08-19T23:34:21.660Z,16.25
2022-08-19T23:36:50.481Z,15.68
2022-08-19T23:39:19.373Z,15.07
2022-08-19T23:41:48.286Z,16.27
2022-08-19T23:44:17.437Z,17.02
2022-08-19T23:46:55.114Z,16.13
2022-08-19T23:49:26.280Z,16.33
2022-08-19T23:51:55.602Z,15.93
2022-08-19T23:54:35.219Z,16.38
2022-08-19T23:57:14.137Z,15.98
2022-08-19T23:59:45.055Z,16.23
